sensor_id;sensor_type;location;lat;lon;timestamp;P1;durP1;ratioP1;P2;durP2;ratioP2
22937;SDS011;11634;42.734;23.298;2023-10-31T00:01:55;18.17;;;6.95;;
22937;SDS011;11634;42.734;23.298;2023-10-31T00:04:25;12.90;;;5.55;;
22937;SDS011;11634;42.734;23.298;2023-10-31T00:06:50;13.13;;;5.93;;
22937;SDS011;11634;42.734;23.298;2023-10-31T00:09:20;17.17;;;7.78;;
22937;SDS011;11634;42.734;23.298;2023-10-31T00:11:46;16.17;;;7.45;;
22937;SDS011;11634;42.734;23.298;2023-10-31T00:14:17;14.15;;;7.47;;
22937;SDS011;11634;42.734;23.298;2023-10-31T00:16:42;11.65;;;6.60;;
22937;SDS011;11634;42.734;23.298;2023-10-31T00:19:12;13.73;;;6.03;;
22937;SDS011;11634;42.734;23.298;2023-10-31T00:21:37;12.82;;;7.30;;
22937;SDS011;11634;42.734;23.298;2023-10-31T00:24:02;12.25;;;6.68;;
22937;SDS011;11634;42.734;23.298;2023-10-31T00:26:35;13.82;;;7.68;;
22937;SDS011;11634;42.734;23.298;2023-10-31T00:29:05;14.25;;;7.57;;
22937;SDS011;11634;42.734;23.298;2023-10-31T00:31:35;16.45;;;7.97;;
22937;SDS011;11634;42.734;23.298;2023-10-31T00:34:01;11.93;;;6.93;;
22937;SDS011;11634;42.734;23.298;2023-10-31T00:36:27;14.23;;;7.85;;
22937;SDS011;11634;42.734;23.298;2023-10-31T00:45:57;15.32;;;7.53;;
22937;SDS011;11634;42.734;23.298;2023-10-31T00:49:20;14.02;;;7.25;;
22937;SDS011;11634;42.734;23.298;2023-10-31T00:51:53;15.07;;;7.88;;
22937;SDS011;11634;42.734;23.298;2023-10-31T00:54:19;11.10;;;6.97;;
22937;SDS011;11634;42.734;23.298;2023-10-31T00:56:44;11.55;;;6.90;;
22937;SDS011;11634;42.734;23.298;2023-10-31T00:59:12;10.07;;;7.00;;
22937;SDS011;11634;42.734;23.298;2023-10-31T01:01:42;14.90;;;6.78;;
22937;SDS011;11634;42.734;23.298;2023-10-31T01:04:18;12.15;;;7.35;;
22937;SDS011;11634;42.734;23.298;2023-10-31T01:06:46;16.25;;;7.47;;
22937;SDS011;11634;42.734;23.298;2023-10-31T01:09:13;14.77;;;7.50;;
22937;SDS011;11634;42.734;23.298;2023-10-31T01:11:39;11.63;;;7.43;;
22937;SDS011;11634;42.734;23.298;2023-10-31T01:14:05;17.48;;;8.45;;
22937;SDS011;11634;42.734;23.298;2023-10-31T01:16:30;14.07;;;7.47;;
22937;SDS011;11634;42.734;23.298;2023-10-31T01:18:56;14.30;;;7.95;;
22937;SDS011;11634;42.734;23.298;2023-10-31T01:21:22;11.82;;;7.70;;
22937;SDS011;11634;42.734;23.298;2023-10-31T01:23:47;14.20;;;7.38;;
22937;SDS011;11634;42.734;23.298;2023-10-31T01:26:13;13.05;;;7.88;;
22937;SDS011;11634;42.734;23.298;2023-10-31T01:28:38;13.88;;;7.72;;
22937;SDS011;11634;42.734;23.298;2023-10-31T01:31:04;12.07;;;7.07;;
22937;SDS011;11634;42.734;23.298;2023-10-31T01:33:30;10.48;;;6.95;;
22937;SDS011;11634;42.734;23.298;2023-10-31T01:35:56;11.63;;;7.70;;
22937;SDS011;11634;42.734;23.298;2023-10-31T01:38:23;12.40;;;8.05;;
22937;SDS011;11634;42.734;23.298;2023-10-31T01:40:49;10.25;;;7.60;;
22937;SDS011;11634;42.734;23.298;2023-10-31T01:43:35;10.70;;;7.22;;
22937;SDS011;11634;42.734;23.298;2023-10-31T01:46:02;14.25;;;7.72;;
22937;SDS011;11634;42.734;23.298;2023-10-31T01:48:29;13.10;;;7.53;;
22937;SDS011;11634;42.734;23.298;2023-10-31T01:50:58;11.60;;;6.95;;
22937;SDS011;11634;42.734;23.298;2023-10-31T01:53:24;11.40;;;7.25;;
22937;SDS011;11634;42.734;23.298;2023-10-31T01:55:52;14.43;;;7.82;;
22937;SDS011;11634;42.734;23.298;2023-10-31T01:58:20;15.57;;;8.13;;
22937;SDS011;11634;42.734;23.298;2023-10-31T02:00:48;13.00;;;7.50;;
22937;SDS011;11634;42.734;23.298;2023-10-31T02:03:14;12.48;;;8.30;;
22937;SDS011;11634;42.734;23.298;2023-10-31T02:05:40;14.18;;;7.22;;
22937;SDS011;11634;42.734;23.298;2023-10-31T02:08:07;12.35;;;7.75;;
22937;SDS011;11634;42.734;23.298;2023-10-31T02:10:35;10.68;;;7.68;;
22937;SDS011;11634;42.734;23.298;2023-10-31T02:13:14;15.52;;;8.75;;
22937;SDS011;11634;42.734;23.298;2023-10-31T02:15:40;11.15;;;6.70;;
22937;SDS011;11634;42.734;23.298;2023-10-31T02:18:05;13.05;;;7.70;;
22937;SDS011;11634;42.734;23.298;2023-10-31T02:20:32;9.85;;;7.22;;
22937;SDS011;11634;42.734;23.298;2023-10-31T02:22:58;18.17;;;7.75;;
22937;SDS011;11634;42.734;23.298;2023-10-31T02:25:24;17.23;;;8.45;;
22937;SDS011;11634;42.734;23.298;2023-10-31T02:27:50;13.25;;;7.00;;
22937;SDS011;11634;42.734;23.298;2023-10-31T02:30:16;14.52;;;7.25;;
22937;SDS011;11634;42.734;23.298;2023-10-31T02:32:41;15.75;;;7.63;;
22937;SDS011;11634;42.734;23.298;2023-10-31T02:35:07;13.82;;;7.00;;
22937;SDS011;11634;42.734;23.298;2023-10-31T02:37:33;15.45;;;6.75;;
22937;SDS011;11634;42.734;23.298;2023-10-31T02:39:59;16.10;;;8.13;;
22937;SDS011;11634;42.734;23.298;2023-10-31T02:42:27;16.92;;;7.57;;
22937;SDS011;11634;42.734;23.298;2023-10-31T02:44:52;15.25;;;7.18;;
22937;SDS011;11634;42.734;23.298;2023-10-31T02:47:19;14.85;;;7.63;;
22937;SDS011;11634;42.734;23.298;2023-10-31T02:49:46;18.08;;;7.85;;
22937;SDS011;11634;42.734;23.298;2023-10-31T02:52:14;19.98;;;7.97;;
22937;SDS011;11634;42.734;23.298;2023-10-31T02:54:40;12.93;;;7.70;;
22937;SDS011;11634;42.734;23.298;2023-10-31T02:57:07;16.45;;;8.05;;
22937;SDS011;11634;42.734;23.298;2023-10-31T02:59:35;16.15;;;7.80;;
22937;SDS011;11634;42.734;23.298;2023-10-31T03:02:02;14.98;;;7.15;;
22937;SDS011;11634;42.734;23.298;2023-10-31T03:04:29;13.68;;;7.18;;
22937;SDS011;11634;42.734;23.298;2023-10-31T03:06:54;15.27;;;7.70;;
22937;SDS011;11634;42.734;23.298;2023-10-31T03:09:20;15.45;;;6.38;;
22937;SDS011;11634;42.734;23.298;2023-10-31T03:11:45;16.05;;;7.13;;
22937;SDS011;11634;42.734;23.298;2023-10-31T03:14:11;13.65;;;7.38;;
22937;SDS011;11634;42.734;23.298;2023-10-31T03:16:37;13.00;;;7.40;;
22937;SDS011;11634;42.734;23.298;2023-10-31T03:19:04;17.67;;;8.32;;
22937;SDS011;11634;42.734;23.298;2023-10-31T03:21:29;14.40;;;7.38;;
22937;SDS011;11634;42.734;23.298;2023-10-31T03:23:58;13.68;;;7.43;;
22937;SDS011;11634;42.734;23.298;2023-10-31T03:26:27;13.60;;;7.22;;
22937;SDS011;11634;42.734;23.298;2023-10-31T03:28:54;16.35;;;8.57;;
22937;SDS011;11634;42.734;23.298;2023-10-31T03:31:22;14.15;;;7.50;;
22937;SDS011;11634;42.734;23.298;2023-10-31T03:33:48;13.27;;;7.63;;
22937;SDS011;11634;42.734;23.298;2023-10-31T03:36:15;13.00;;;8.05;;
22937;SDS011;11634;42.734;23.298;2023-10-31T03:38:45;15.07;;;8.40;;
22937;SDS011;11634;42.734;23.298;2023-10-31T03:41:10;16.67;;;8.10;;
22937;SDS011;11634;42.734;23.298;2023-10-31T03:43:36;12.52;;;8.45;;
22937;SDS011;11634;42.734;23.298;2023-10-31T03:46:02;15.93;;;8.52;;
22937;SDS011;11634;42.734;23.298;2023-10-31T03:48:28;14.57;;;8.77;;
22937;SDS011;11634;42.734;23.298;2023-10-31T03:50:54;13.13;;;9.15;;
22937;SDS011;11634;42.734;23.298;2023-10-31T03:53:20;17.45;;;9.27;;
22937;SDS011;11634;42.734;23.298;2023-10-31T03:55:49;14.07;;;8.35;;
22937;SDS011;11634;42.734;23.298;2023-10-31T03:58:16;16.90;;;10.60;;
22937;SDS011;11634;42.734;23.298;2023-10-31T04:00:42;15.95;;;8.75;;
22937;SDS011;11634;42.734;23.298;2023-10-31T04:03:08;13.95;;;8.85;;
22937;SDS011;11634;42.734;23.298;2023-10-31T04:05:34;17.45;;;8.63;;
22937;SDS011;11634;42.734;23.298;2023-10-31T04:08:01;12.40;;;8.98;;
22937;SDS011;11634;42.734;23.298;2023-10-31T04:10:27;16.50;;;9.60;;
22937;SDS011;11634;42.734;23.298;2023-10-31T04:12:55;12.98;;;8.75;;
22937;SDS011;11634;42.734;23.298;2023-10-31T04:15:20;16.15;;;10.25;;
22937;SDS011;11634;42.734;23.298;2023-10-31T04:17:51;25.90;;;9.93;;
22937;SDS011;11634;42.734;23.298;2023-10-31T04:20:20;15.10;;;9.93;;
22937;SDS011;11634;42.734;23.298;2023-10-31T04:22:47;19.30;;;10.07;;
22937;SDS011;11634;42.734;23.298;2023-10-31T04:25:12;15.45;;;9.45;;
22937;SDS011;11634;42.734;23.298;2023-10-31T04:27:39;16.75;;;9.95;;
22937;SDS011;11634;42.734;23.298;2023-10-31T04:30:04;15.75;;;9.82;;
22937;SDS011;11634;42.734;23.298;2023-10-31T04:32:31;15.18;;;9.82;;
22937;SDS011;11634;42.734;23.298;2023-10-31T04:34:58;21.33;;;10.32;;
22937;SDS011;11634;42.734;23.298;2023-10-31T04:37:23;18.80;;;10.15;;
22937;SDS011;11634;42.734;23.298;2023-10-31T04:39:56;13.60;;;9.98;;
22937;SDS011;11634;42.734;23.298;2023-10-31T04:42:22;18.10;;;9.88;;
22937;SDS011;11634;42.734;23.298;2023-10-31T04:44:48;19.27;;;10.10;;
22937;SDS011;11634;42.734;23.298;2023-10-31T04:47:13;18.17;;;11.07;;
22937;SDS011;11634;42.734;23.298;2023-10-31T04:49:40;19.13;;;10.68;;
22937;SDS011;11634;42.734;23.298;2023-10-31T04:52:07;17.08;;;10.40;;
22937;SDS011;11634;42.734;23.298;2023-10-31T04:54:34;18.88;;;11.05;;
22937;SDS011;11634;42.734;23.298;2023-10-31T04:56:59;17.38;;;10.73;;
22937;SDS011;11634;42.734;23.298;2023-10-31T04:59:25;21.05;;;10.93;;
22937;SDS011;11634;42.734;23.298;2023-10-31T05:01:54;25.08;;;11.85;;
22937;SDS011;11634;42.734;23.298;2023-10-31T05:04:24;17.08;;;10.20;;
22937;SDS011;11634;42.734;23.298;2023-10-31T05:06:50;19.45;;;10.48;;
22937;SDS011;11634;42.734;23.298;2023-10-31T05:09:15;20.08;;;11.02;;
22937;SDS011;11634;42.734;23.298;2023-10-31T05:11:50;20.67;;;13.25;;
22937;SDS011;11634;42.734;23.298;2023-10-31T05:14:15;21.38;;;11.93;;
22937;SDS011;11634;42.734;23.298;2023-10-31T05:16:41;17.92;;;11.77;;
22937;SDS011;11634;42.734;23.298;2023-10-31T05:19:09;23.20;;;13.15;;
22937;SDS011;11634;42.734;23.298;2023-10-31T05:21:38;22.08;;;11.60;;
22937;SDS011;11634;42.734;23.298;2023-10-31T05:24:13;21.35;;;12.45;;
22937;SDS011;11634;42.734;23.298;2023-10-31T05:26:40;20.88;;;12.10;;
22937;SDS011;11634;42.734;23.298;2023-10-31T05:29:10;21.30;;;12.13;;
22937;SDS011;11634;42.734;23.298;2023-10-31T05:31:36;22.20;;;12.30;;
22937;SDS011;11634;42.734;23.298;2023-10-31T05:36:50;15.60;;;12.55;;
22937;SDS011;11634;42.734;23.298;2023-10-31T05:39:23;23.15;;;13.50;;
22937;SDS011;11634;42.734;23.298;2023-10-31T05:41:51;24.05;;;13.55;;
22937;SDS011;11634;42.734;23.298;2023-10-31T05:47:49;23.50;;;13.80;;
22937;SDS011;11634;42.734;23.298;2023-10-31T05:53:05;22.38;;;13.85;;
22937;SDS011;11634;42.734;23.298;2023-10-31T05:55:40;19.55;;;12.77;;
22937;SDS011;11634;42.734;23.298;2023-10-31T05:58:06;24.80;;;14.25;;
22937;SDS011;11634;42.734;23.298;2023-10-31T06:00:32;20.35;;;12.90;;
22937;SDS011;11634;42.734;23.298;2023-10-31T06:02:58;21.08;;;12.32;;
22937;SDS011;11634;42.734;23.298;2023-10-31T06:05:23;19.13;;;11.65;;
22937;SDS011;11634;42.734;23.298;2023-10-31T06:07:49;20.63;;;12.07;;
22937;SDS011;11634;42.734;23.298;2023-10-31T06:10:14;19.38;;;13.00;;
22937;SDS011;11634;42.734;23.298;2023-10-31T06:12:40;21.60;;;13.50;;
22937;SDS011;11634;42.734;23.298;2023-10-31T06:15:06;18.70;;;13.30;;
22937;SDS011;11634;42.734;23.298;2023-10-31T06:17:34;16.92;;;14.35;;
22937;SDS011;11634;42.734;23.298;2023-10-31T06:20:01;23.17;;;13.82;;
22937;SDS011;11634;42.734;23.298;2023-10-31T06:22:27;22.50;;;15.05;;
22937;SDS011;11634;42.734;23.298;2023-10-31T06:24:54;23.13;;;14.68;;
22937;SDS011;11634;42.734;23.298;2023-10-31T06:27:27;26.20;;;15.18;;
22937;SDS011;11634;42.734;23.298;2023-10-31T06:29:53;23.45;;;13.77;;
22937;SDS011;11634;42.734;23.298;2023-10-31T06:32:23;18.48;;;13.55;;
22937;SDS011;11634;42.734;23.298;2023-10-31T06:34:49;24.40;;;14.07;;
22937;SDS011;11634;42.734;23.298;2023-10-31T06:37:14;19.75;;;13.13;;
22937;SDS011;11634;42.734;23.298;2023-10-31T06:39:41;18.20;;;12.82;;
22937;SDS011;11634;42.734;23.298;2023-10-31T06:42:06;21.67;;;13.20;;
22937;SDS011;11634;42.734;23.298;2023-10-31T06:44:32;20.05;;;12.48;;
22937;SDS011;11634;42.734;23.298;2023-10-31T06:46:58;21.73;;;12.68;;
22937;SDS011;11634;42.734;23.298;2023-10-31T06:49:23;21.17;;;12.52;;
22937;SDS011;11634;42.734;23.298;2023-10-31T06:51:49;22.88;;;12.85;;
22937;SDS011;11634;42.734;23.298;2023-10-31T06:54:14;23.02;;;13.00;;
22937;SDS011;11634;42.734;23.298;2023-10-31T06:59:37;20.23;;;12.73;;
22937;SDS011;11634;42.734;23.298;2023-10-31T07:02:02;26.40;;;13.95;;
22937;SDS011;11634;42.734;23.298;2023-10-31T07:04:28;20.83;;;14.82;;
22937;SDS011;11634;42.734;23.298;2023-10-31T07:06:53;19.17;;;14.13;;
22937;SDS011;11634;42.734;23.298;2023-10-31T07:09:26;23.05;;;14.30;;
22937;SDS011;11634;42.734;23.298;2023-10-31T07:12:10;27.77;;;15.45;;
22937;SDS011;11634;42.734;23.298;2023-10-31T07:14:35;20.02;;;14.23;;
22937;SDS011;11634;42.734;23.298;2023-10-31T07:17:01;25.77;;;14.95;;
22937;SDS011;11634;42.734;23.298;2023-10-31T07:19:29;21.60;;;14.07;;
22937;SDS011;11634;42.734;23.298;2023-10-31T07:21:57;20.35;;;14.15;;
22937;SDS011;11634;42.734;23.298;2023-10-31T07:24:25;23.27;;;15.48;;
22937;SDS011;11634;42.734;23.298;2023-10-31T07:26:55;21.83;;;15.05;;
22937;SDS011;11634;42.734;23.298;2023-10-31T07:29:24;27.67;;;16.15;;
22937;SDS011;11634;42.734;23.298;2023-10-31T07:31:49;24.23;;;15.00;;
22937;SDS011;11634;42.734;23.298;2023-10-31T07:34:17;25.00;;;15.50;;
22937;SDS011;11634;42.734;23.298;2023-10-31T07:36:44;22.63;;;15.98;;
22937;SDS011;11634;42.734;23.298;2023-10-31T07:39:09;22.98;;;15.18;;
22937;SDS011;11634;42.734;23.298;2023-10-31T07:41:35;29.42;;;17.17;;
22937;SDS011;11634;42.734;23.298;2023-10-31T07:44:00;27.60;;;16.98;;
22937;SDS011;11634;42.734;23.298;2023-10-31T07:46:26;32.03;;;17.10;;
22937;SDS011;11634;42.734;23.298;2023-10-31T07:48:51;27.90;;;16.27;;
22937;SDS011;11634;42.734;23.298;2023-10-31T07:51:17;28.55;;;16.90;;
22937;SDS011;11634;42.734;23.298;2023-10-31T07:53:42;31.77;;;16.17;;
22937;SDS011;11634;42.734;23.298;2023-10-31T07:56:17;26.95;;;16.00;;
22937;SDS011;11634;42.734;23.298;2023-10-31T07:59:20;24.27;;;15.82;;
22937;SDS011;11634;42.734;23.298;2023-10-31T08:01:46;25.58;;;15.98;;
22937;SDS011;11634;42.734;23.298;2023-10-31T08:04:13;20.55;;;15.05;;
22937;SDS011;11634;42.734;23.298;2023-10-31T08:06:43;18.90;;;12.88;;
22937;SDS011;11634;42.734;23.298;2023-10-31T08:09:11;24.75;;;12.38;;
22937;SDS011;11634;42.734;23.298;2023-10-31T08:11:38;23.02;;;14.48;;
22937;SDS011;11634;42.734;23.298;2023-10-31T08:14:06;18.85;;;14.43;;
22937;SDS011;11634;42.734;23.298;2023-10-31T08:16:31;25.55;;;14.55;;
22937;SDS011;11634;42.734;23.298;2023-10-31T08:18:58;23.42;;;14.88;;
22937;SDS011;11634;42.734;23.298;2023-10-31T08:21:30;23.92;;;14.43;;
22937;SDS011;11634;42.734;23.298;2023-10-31T08:24:04;21.40;;;14.27;;
22937;SDS011;11634;42.734;23.298;2023-10-31T08:26:32;22.20;;;14.35;;
22937;SDS011;11634;42.734;23.298;2023-10-31T08:29:03;19.85;;;14.35;;
22937;SDS011;11634;42.734;23.298;2023-10-31T08:31:30;21.20;;;13.80;;
22937;SDS011;11634;42.734;23.298;2023-10-31T08:33:57;19.38;;;12.93;;
22937;SDS011;11634;42.734;23.298;2023-10-31T08:36:23;21.33;;;13.65;;
22937;SDS011;11634;42.734;23.298;2023-10-31T08:38:48;25.52;;;14.00;;
22937;SDS011;11634;42.734;23.298;2023-10-31T08:44:34;19.40;;;13.05;;
22937;SDS011;11634;42.734;23.298;2023-10-31T08:47:03;20.42;;;12.25;;
22937;SDS011;11634;42.734;23.298;2023-10-31T08:49:29;16.90;;;10.10;;
22937;SDS011;11634;42.734;23.298;2023-10-31T08:51:54;16.08;;;11.00;;
22937;SDS011;11634;42.734;23.298;2023-10-31T08:55:00;20.73;;;11.82;;
22937;SDS011;11634;42.734;23.298;2023-10-31T08:57:27;22.00;;;14.77;;
22937;SDS011;11634;42.734;23.298;2023-10-31T08:59:52;18.25;;;12.38;;
22937;SDS011;11634;42.734;23.298;2023-10-31T09:02:22;19.30;;;13.27;;
22937;SDS011;11634;42.734;23.298;2023-10-31T09:04:54;22.45;;;13.10;;
22937;SDS011;11634;42.734;23.298;2023-10-31T09:07:23;22.70;;;17.40;;
22937;SDS011;11634;42.734;23.298;2023-10-31T09:09:52;22.83;;;18.35;;
22937;SDS011;11634;42.734;23.298;2023-10-31T09:12:26;27.30;;;17.90;;
22937;SDS011;11634;42.734;23.298;2023-10-31T09:14:54;27.05;;;17.02;;
22937;SDS011;11634;42.734;23.298;2023-10-31T09:17:24;25.10;;;16.58;;
22937;SDS011;11634;42.734;23.298;2023-10-31T09:19:53;22.73;;;14.40;;
22937;SDS011;11634;42.734;23.298;2023-10-31T09:22:20;23.17;;;13.85;;
22937;SDS011;11634;42.734;23.298;2023-10-31T09:24:47;21.98;;;15.25;;
22937;SDS011;11634;42.734;23.298;2023-10-31T09:27:17;23.23;;;13.98;;
22937;SDS011;11634;42.734;23.298;2023-10-31T09:29:43;23.60;;;14.52;;
22937;SDS011;11634;42.734;23.298;2023-10-31T09:32:18;18.10;;;13.75;;
22937;SDS011;11634;42.734;23.298;2023-10-31T09:34:46;25.38;;;15.48;;
22937;SDS011;11634;42.734;23.298;2023-10-31T09:37:21;23.73;;;13.05;;
22937;SDS011;11634;42.734;23.298;2023-10-31T09:39:46;20.17;;;13.13;;
22937;SDS011;11634;42.734;23.298;2023-10-31T09:42:12;19.67;;;13.88;;
22937;SDS011;11634;42.734;23.298;2023-10-31T09:44:40;22.80;;;14.70;;
22937;SDS011;11634;42.734;23.298;2023-10-31T09:47:06;16.58;;;12.82;;
22937;SDS011;11634;42.734;23.298;2023-10-31T09:49:34;20.45;;;12.95;;
22937;SDS011;11634;42.734;23.298;2023-10-31T09:51:59;19.17;;;13.20;;
22937;SDS011;11634;42.734;23.298;2023-10-31T09:54:32;18.73;;;11.88;;
22937;SDS011;11634;42.734;23.298;2023-10-31T09:57:01;19.90;;;11.60;;
22937;SDS011;11634;42.734;23.298;2023-10-31T09:59:47;15.63;;;10.23;;
22937;SDS011;11634;42.734;23.298;2023-10-31T10:02:52;18.20;;;10.32;;
22937;SDS011;11634;42.734;23.298;2023-10-31T10:09:06;13.10;;;9.02;;
22937;SDS011;11634;42.734;23.298;2023-10-31T10:12:09;16.63;;;9.48;;
22937;SDS011;11634;42.734;23.298;2023-10-31T10:14:30;15.10;;;9.38;;
22937;SDS011;11634;42.734;23.298;2023-10-31T10:17:26;17.67;;;10.10;;
22937;SDS011;11634;42.734;23.298;2023-10-31T10:20:05;15.50;;;7.43;;
22937;SDS011;11634;42.734;23.298;2023-10-31T10:22:52;10.95;;;7.55;;
22937;SDS011;11634;42.734;23.298;2023-10-31T10:25:18;14.73;;;7.20;;
22937;SDS011;11634;42.734;23.298;2023-10-31T10:27:45;15.57;;;7.15;;
22937;SDS011;11634;42.734;23.298;2023-10-31T10:30:14;10.20;;;5.53;;
22937;SDS011;11634;42.734;23.298;2023-10-31T10:32:42;11.90;;;5.85;;
22937;SDS011;11634;42.734;23.298;2023-10-31T10:35:09;10.73;;;6.05;;
22937;SDS011;11634;42.734;23.298;2023-10-31T10:37:44;10.95;;;5.63;;
22937;SDS011;11634;42.734;23.298;2023-10-31T10:40:20;11.30;;;5.97;;
22937;SDS011;11634;42.734;23.298;2023-10-31T10:42:47;8.45;;;5.07;;
22937;SDS011;11634;42.734;23.298;2023-10-31T10:45:20;10.38;;;5.30;;
22937;SDS011;11634;42.734;23.298;2023-10-31T10:47:46;12.80;;;6.03;;
22937;SDS011;11634;42.734;23.298;2023-10-31T10:50:19;10.82;;;5.88;;
22937;SDS011;11634;42.734;23.298;2023-10-31T10:52:49;11.65;;;5.72;;
22937;SDS011;11634;42.734;23.298;2023-10-31T10:55:19;16.17;;;6.45;;
22937;SDS011;11634;42.734;23.298;2023-10-31T10:58:00;11.65;;;6.18;;
22937;SDS011;11634;42.734;23.298;2023-10-31T11:00:30;13.63;;;5.38;;
22937;SDS011;11634;42.734;23.298;2023-10-31T11:02:57;13.02;;;5.93;;
22937;SDS011;11634;42.734;23.298;2023-10-31T11:05:33;12.80;;;5.50;;
22937;SDS011;11634;42.734;23.298;2023-10-31T11:08:03;15.45;;;4.30;;
22937;SDS011;11634;42.734;23.298;2023-10-31T11:10:31;10.95;;;4.93;;
22937;SDS011;11634;42.734;23.298;2023-10-31T11:13:08;14.15;;;5.28;;
22937;SDS011;11634;42.734;23.298;2023-10-31T11:15:36;7.03;;;4.78;;
22937;SDS011;11634;42.734;23.298;2023-10-31T11:18:05;8.88;;;4.18;;
22937;SDS011;11634;42.734;23.298;2023-10-31T11:20:37;7.95;;;3.42;;
22937;SDS011;11634;42.734;23.298;2023-10-31T11:23:04;7.53;;;3.38;;
22937;SDS011;11634;42.734;23.298;2023-10-31T11:25:31;9.68;;;4.20;;
22937;SDS011;11634;42.734;23.298;2023-10-31T11:27:57;6.78;;;3.38;;
22937;SDS011;11634;42.734;23.298;2023-10-31T11:30:41;9.15;;;3.80;;
22937;SDS011;11634;42.734;23.298;2023-10-31T11:33:27;9.00;;;4.15;;
22937;SDS011;11634;42.734;23.298;2023-10-31T11:36:00;9.98;;;4.45;;
22937;SDS011;11634;42.734;23.298;2023-10-31T11:38:32;9.65;;;3.92;;
22937;SDS011;11634;42.734;23.298;2023-10-31T11:41:02;9.82;;;3.75;;
22937;SDS011;11634;42.734;23.298;2023-10-31T11:46:05;11.40;;;3.80;;
22937;SDS011;11634;42.734;23.298;2023-10-31T11:48:51;11.13;;;3.95;;
22937;SDS011;11634;42.734;23.298;2023-10-31T11:51:17;7.15;;;4.03;;
22937;SDS011;11634;42.734;23.298;2023-10-31T11:53:49;8.48;;;3.92;;
22937;SDS011;11634;42.734;23.298;2023-10-31T11:56:21;8.95;;;4.38;;
22937;SDS011;11634;42.734;23.298;2023-10-31T11:58:58;7.15;;;3.63;;
22937;SDS011;11634;42.734;23.298;2023-10-31T12:01:26;7.68;;;3.65;;
22937;SDS011;11634;42.734;23.298;2023-10-31T12:03:58;6.35;;;3.28;;
22937;SDS011;11634;42.734;23.298;2023-10-31T12:06:24;5.93;;;2.90;;
22937;SDS011;11634;42.734;23.298;2023-10-31T12:08:49;11.00;;;3.15;;
22937;SDS011;11634;42.734;23.298;2023-10-31T12:11:19;8.90;;;3.42;;
22937;SDS011;11634;42.734;23.298;2023-10-31T12:13:57;7.03;;;2.90;;
22937;SDS011;11634;42.734;23.298;2023-10-31T12:16:26;7.65;;;2.80;;
22937;SDS011;11634;42.734;23.298;2023-10-31T12:24:02;9.95;;;3.22;;
22937;SDS011;11634;42.734;23.298;2023-10-31T12:26:28;8.75;;;2.90;;
22937;SDS011;11634;42.734;23.298;2023-10-31T12:29:05;5.60;;;3.03;;
22937;SDS011;11634;42.734;23.298;2023-10-31T12:38:13;10.35;;;3.33;;
22937;SDS011;11634;42.734;23.298;2023-10-31T12:40:51;7.40;;;3.28;;
22937;SDS011;11634;42.734;23.298;2023-10-31T12:43:23;7.75;;;3.20;;
22937;SDS011;11634;42.734;23.298;2023-10-31T12:45:48;9.82;;;3.40;;
22937;SDS011;11634;42.734;23.298;2023-10-31T12:48:14;10.05;;;3.28;;
22937;SDS011;11634;42.734;23.298;2023-10-31T12:50:48;12.57;;;3.47;;
22937;SDS011;11634;42.734;23.298;2023-10-31T12:53:22;12.05;;;3.60;;
22937;SDS011;11634;42.734;23.298;2023-10-31T12:55:51;12.70;;;3.78;;
22937;SDS011;11634;42.734;23.298;2023-10-31T12:58:22;7.38;;;3.08;;
22937;SDS011;11634;42.734;23.298;2023-10-31T13:00:48;14.63;;;3.90;;
22937;SDS011;11634;42.734;23.298;2023-10-31T13:03:21;10.38;;;3.67;;
22937;SDS011;11634;42.734;23.298;2023-10-31T13:05:48;14.30;;;3.97;;
22937;SDS011;11634;42.734;23.298;2023-10-31T13:08:16;7.65;;;3.20;;
22937;SDS011;11634;42.734;23.298;2023-10-31T13:10:51;8.85;;;3.33;;
22937;SDS011;11634;42.734;23.298;2023-10-31T13:13:20;8.82;;;3.03;;
22937;SDS011;11634;42.734;23.298;2023-10-31T13:15:46;10.20;;;3.53;;
22937;SDS011;11634;42.734;23.298;2023-10-31T13:18:11;13.27;;;4.40;;
22937;SDS011;11634;42.734;23.298;2023-10-31T13:20:39;13.40;;;4.03;;
22937;SDS011;11634;42.734;23.298;2023-10-31T13:23:05;6.43;;;3.42;;
22937;SDS011;11634;42.734;23.298;2023-10-31T13:25:44;9.18;;;3.78;;
22937;SDS011;11634;42.734;23.298;2023-10-31T13:28:19;8.68;;;2.85;;
22937;SDS011;11634;42.734;23.298;2023-10-31T13:30:47;8.40;;;3.00;;
22937;SDS011;11634;42.734;23.298;2023-10-31T13:33:13;6.78;;;3.17;;
22937;SDS011;11634;42.734;23.298;2023-10-31T13:35:39;6.28;;;2.97;;
22937;SDS011;11634;42.734;23.298;2023-10-31T13:38:08;8.55;;;3.70;;
22937;SDS011;11634;42.734;23.298;2023-10-31T13:40:33;5.07;;;3.08;;
22937;SDS011;11634;42.734;23.298;2023-10-31T13:43:01;5.15;;;2.67;;
22937;SDS011;11634;42.734;23.298;2023-10-31T13:45:27;10.52;;;3.45;;
22937;SDS011;11634;42.734;23.298;2023-10-31T13:47:56;12.43;;;3.30;;
22937;SDS011;11634;42.734;23.298;2023-10-31T13:50:24;8.48;;;2.97;;
22937;SDS011;11634;42.734;23.298;2023-10-31T13:52:50;12.30;;;3.28;;
22937;SDS011;11634;42.734;23.298;2023-10-31T13:55:16;11.18;;;3.35;;
22937;SDS011;11634;42.734;23.298;2023-10-31T13:57:44;8.40;;;3.10;;
22937;SDS011;11634;42.734;23.298;2023-10-31T14:00:19;8.65;;;2.53;;
22937;SDS011;11634;42.734;23.298;2023-10-31T14:02:44;6.57;;;3.05;;
22937;SDS011;11634;42.734;23.298;2023-10-31T14:05:33;7.40;;;3.00;;
22937;SDS011;11634;42.734;23.298;2023-10-31T14:08:04;8.25;;;3.33;;
22937;SDS011;11634;42.734;23.298;2023-10-31T14:11:05;10.10;;;2.78;;
22937;SDS011;11634;42.734;23.298;2023-10-31T14:13:40;7.70;;;2.95;;
22937;SDS011;11634;42.734;23.298;2023-10-31T14:16:12;11.55;;;3.20;;
22937;SDS011;11634;42.734;23.298;2023-10-31T14:18:37;11.60;;;3.70;;
22937;SDS011;11634;42.734;23.298;2023-10-31T14:21:04;8.10;;;3.03;;
22937;SDS011;11634;42.734;23.298;2023-10-31T14:23:32;8.52;;;3.78;;
22937;SDS011;11634;42.734;23.298;2023-10-31T14:25:57;11.35;;;3.53;;
22937;SDS011;11634;42.734;23.298;2023-10-31T14:28:25;9.25;;;3.25;;
22937;SDS011;11634;42.734;23.298;2023-10-31T14:30:54;16.92;;;3.75;;
22937;SDS011;11634;42.734;23.298;2023-10-31T14:33:28;13.48;;;4.15;;
22937;SDS011;11634;42.734;23.298;2023-10-31T14:35:57;12.55;;;4.07;;
22937;SDS011;11634;42.734;23.298;2023-10-31T14:38:23;14.82;;;4.03;;
22937;SDS011;11634;42.734;23.298;2023-10-31T14:41:07;10.18;;;3.40;;
22937;SDS011;11634;42.734;23.298;2023-10-31T14:43:36;10.80;;;3.45;;
22937;SDS011;11634;42.734;23.298;2023-10-31T14:46:17;19.58;;;5.20;;
22937;SDS011;11634;42.734;23.298;2023-10-31T14:49:09;17.75;;;4.97;;
22937;SDS011;11634;42.734;23.298;2023-10-31T14:51:35;21.20;;;4.65;;
22937;SDS011;11634;42.734;23.298;2023-10-31T14:54:01;19.67;;;5.38;;
22937;SDS011;11634;42.734;23.298;2023-10-31T14:56:27;23.77;;;5.50;;
22937;SDS011;11634;42.734;23.298;2023-10-31T14:59:03;10.60;;;4.15;;
22937;SDS011;11634;42.734;23.298;2023-10-31T15:01:29;9.10;;;4.07;;
22937;SDS011;11634;42.734;23.298;2023-10-31T15:03:54;8.63;;;4.32;;
22937;SDS011;11634;42.734;23.298;2023-10-31T15:06:20;28.10;;;6.40;;
22937;SDS011;11634;42.734;23.298;2023-10-31T15:08:46;27.88;;;6.72;;
22937;SDS011;11634;42.734;23.298;2023-10-31T15:11:12;27.00;;;7.05;;